createdAt,value
2023-03-02T00:00:01.401Z,109.00
2023-03-02T00:01:01.919Z,109.00
2023-03-02T00:02:02.359Z,109.00
2023-03-02T00:03:02.471Z,109.00
2023-03-02T00:04:03.204Z,109.00
2023-03-02T00:05:03.082Z,109.00
2023-03-02T00:06:03.721Z,109.00
2023-03-02T00:07:04.324Z,109.00
2023-03-02T00:08:04.942Z,109.00
2023-03-02T00:09:05.588Z,109.00
2023-03-02T00:10:05.665Z,109.00
2023-03-02T00:11:06.143Z,109.00
2023-03-02T00:12:06.804Z,109.00
2023-03-02T00:13:07.580Z,109.00
2023-03-02T00:14:08.355Z,109.00
2023-03-02T00:15:09.303Z,109.00
2023-03-02T00:16:10.117Z,109.00
2023-03-02T00:17:10.968Z,109.00
2023-03-02T00:18:11.726Z,109.00
2023-03-02T00:19:11.936Z,109.00
2023-03-02T00:19:22.684Z,109.00
2023-03-02T00:20:23.609Z,109.00
2023-03-02T00:21:23.659Z,109.00
2023-03-02T00:22:24.655Z,109.00
2023-03-02T00:23:25.128Z,109.00
2023-03-02T00:24:25.951Z,109.00
2023-03-02T00:25:26.148Z,109.00
2023-03-02T00:26:26.894Z,109.00
2023-03-02T00:27:27.712Z,109.00
2023-03-02T00:28:28.420Z,109.00
2023-03-02T00:29:29.552Z,109.00
2023-03-02T00:30:29.505Z,109.00
2023-03-02T00:31:29.632Z,109.00
2023-03-02T00:32:30.166Z,109.00
2023-03-02T00:33:30.220Z,109.00
2023-03-02T00:34:31.006Z,109.00
2023-03-02T00:35:31.623Z,109.00
2023-03-02T00:36:31.881Z,109.00
2023-03-02T00:37:32.559Z,109.00
2023-03-02T00:38:33.451Z,109.00
2023-03-02T00:39:34.080Z,109.00
2023-03-02T00:40:34.838Z,109.00
2023-03-02T00:41:35.350Z,109.00
2023-03-02T00:42:36.079Z,109.00
2023-03-02T00:43:36.813Z,109.00
2023-03-02T00:44:37.266Z,109.00
2023-03-02T00:45:38.112Z,109.00
2023-03-02T00:46:39.095Z,109.00
2023-03-02T00:47:41.044Z,109.00
2023-03-02T00:48:40.335Z,109.00
2023-03-02T00:49:40.975Z,109.00
2023-03-02T00:50:41.375Z,109.00
2023-03-02T00:50:50.530Z,109.00
2023-03-02T00:51:51.245Z,109.00
2023-03-02T00:52:51.210Z,109.00
2023-03-02T00:53:51.969Z,109.00
2023-03-02T00:54:52.630Z,109.00
2023-03-02T00:55:53.540Z,109.00
2023-03-02T00:56:54.308Z,109.00
2023-03-02T00:57:54.598Z,109.00
2023-03-02T00:58:54.585Z,109.00
2023-03-02T00:59:54.999Z,109.00
2023-03-02T01:00:55.512Z,109.00
2023-03-02T01:01:55.659Z,109.00
2023-03-02T01:02:55.786Z,109.00
2023-03-02T01:03:55.764Z,109.00
2023-03-02T01:04:55.833Z,109.00
2023-03-02T01:05:56.286Z,109.00
2023-03-02T01:06:57.209Z,109.00
2023-03-02T01:07:57.808Z,109.00
2023-03-02T01:08:58.726Z,109.00
2023-03-02T01:09:59.467Z,109.00
2023-03-02T01:11:00.182Z,109.00
2023-03-02T01:12:00.973Z,109.00
2023-03-02T01:13:01.908Z,109.00
2023-03-02T01:14:02.757Z,109.00
2023-03-02T01:15:03.228Z,109.00
2023-03-02T01:16:03.772Z,109.00
2023-03-02T01:17:04.074Z,109.00
2023-03-02T01:18:04.622Z,109.00
2023-03-02T01:19:05.247Z,109.00
2023-03-02T01:20:05.866Z,109.00
2023-03-02T01:21:06.572Z,109.00
2023-03-02T01:22:07.110Z,109.00
2023-03-02T01:23:07.075Z,109.00
2023-03-02T01:23:16.335Z,109.00
2023-03-02T01:24:16.926Z,109.00
2023-03-02T01:25:17.615Z,109.00
2023-03-02T01:26:17.666Z,109.00
2023-03-02T01:27:19.353Z,109.00
2023-03-02T01:28:18.686Z,109.00
2023-03-02T01:29:19.757Z,109.00
2023-03-02T01:30:19.564Z,109.00
2023-03-02T01:31:20.449Z,109.00
2023-03-02T01:32:20.593Z,109.00
2023-03-02T01:33:21.204Z,109.00
2023-03-02T01:34:21.369Z,109.00
2023-03-02T01:35:22.222Z,109.00
2023-03-02T01:36:22.881Z,109.00
2023-03-02T01:37:23.638Z,109.00
2023-03-02T01:38:23.813Z,109.00
2023-03-02T01:39:24.649Z,109.00
2023-03-02T01:40:24.843Z,109.00
2023-03-02T01:41:25.661Z,109.00
2023-03-02T01:42:26.398Z,109.00
2023-03-02T01:43:27.207Z,109.00
2023-03-02T01:44:27.848Z,109.00
2023-03-02T01:45:28.708Z,109.00
2023-03-02T01:46:28.772Z,109.00
2023-03-02T01:47:29.467Z,109.00
2023-03-02T01:48:29.690Z,109.00
2023-03-02T01:49:30.420Z,109.00
2023-03-02T01:50:31.110Z,109.00
2023-03-02T01:51:31.524Z,109.00
2023-03-02T01:52:31.995Z,109.00
2023-03-02T01:53:32.812Z,109.00
2023-03-02T01:54:33.432Z,109.00
2023-03-02T01:54:42.163Z,109.00
2023-03-02T01:55:43.112Z,109.00
2023-03-02T01:56:43.578Z,109.00
2023-03-02T01:57:44.527Z,109.00
2023-03-02T01:58:45.330Z,109.00
2023-03-02T01:59:45.428Z,109.00
2023-03-02T02:00:46.477Z,109.00
2023-03-02T02:01:47.155Z,109.00
2023-03-02T02:02:47.295Z,109.00
2023-03-02T02:03:47.647Z,109.00
2023-03-02T02:04:48.376Z,109.00
2023-03-02T02:05:49.279Z,109.00
2023-03-02T02:06:50.242Z,109.00
2023-03-02T02:07:50.472Z,109.00
2023-03-02T02:08:51.453Z,109.00
2023-03-02T02:09:52.074Z,109.00
2023-03-02T02:10:52.166Z,109.00
2023-03-02T02:11:52.953Z,109.00
2023-03-02T02:12:53.000Z,109.00
2023-03-02T02:13:53.241Z,109.00
2023-03-02T02:14:53.266Z,109.00
2023-03-02T02:15:53.735Z,109.00
2023-03-02T02:16:54.732Z,109.00
2023-03-02T02:17:54.900Z,109.00
2023-03-02T02:18:55.550Z,109.00
2023-03-02T02:19:56.489Z,109.00
2023-03-02T02:20:56.724Z,109.00
2023-03-02T02:21:56.871Z,109.00
2023-03-02T02:22:57.053Z,109.00
2023-03-02T02:23:57.835Z,109.00
2023-03-02T02:24:58.480Z,109.00
2023-03-02T02:25:59.449Z,109.00
2023-03-02T02:26:59.976Z,109.00
2023-03-02T02:27:09.156Z,109.00
2023-03-02T02:28:10.057Z,109.00
2023-03-02T02:29:10.825Z,109.00
2023-03-02T02:30:11.758Z,109.00
2023-03-02T02:31:11.993Z,109.00
2023-03-02T02:32:12.398Z,109.00
2023-03-02T02:33:12.949Z,109.00
2023-03-02T02:34:13.704Z,109.00
2023-03-02T02:35:14.605Z,109.00
2023-03-02T02:36:15.580Z,109.00
2023-03-02T02:37:16.397Z,109.00
2023-03-02T02:38:17.293Z,109.00
2023-03-02T02:39:17.625Z,109.00
2023-03-02T02:40:18.489Z,109.00
2023-03-02T02:41:19.375Z,109.00
2023-03-02T02:42:20.100Z,109.00
2023-03-02T02:43:21.175Z,109.00
2023-03-02T02:44:21.750Z,109.00
2023-03-02T02:45:22.578Z,109.00
2023-03-02T02:46:23.395Z,109.00
2023-03-02T02:47:24.026Z,109.00
2023-03-02T02:48:24.050Z,109.00
2023-03-02T02:49:24.741Z,109.00
2023-03-02T02:50:25.682Z,109.00
2023-03-02T02:51:26.400Z,109.00
2023-03-02T02:52:26.948Z,109.00
2023-03-02T02:53:27.063Z,109.00
2023-03-02T02:54:27.909Z,109.00
2023-03-02T02:55:28.093Z,109.00
2023-03-02T02:56:28.813Z,109.00
2023-03-02T02:57:29.116Z,109.00
2023-03-02T02:58:29.944Z,109.00
2023-03-02T02:59:30.387Z,109.00
2023-03-02T02:59:40.138Z,109.00
2023-03-02T03:00:39.640Z,109.00
2023-03-02T03:01:39.895Z,109.00
2023-03-02T03:02:40.557Z,109.00
2023-03-02T03:03:40.699Z,109.00
2023-03-02T03:04:41.098Z,109.00
2023-03-02T03:05:41.861Z,109.00
2023-03-02T03:06:42.828Z,109.00
2023-03-02T03:07:43.198Z,109.00
2023-03-02T03:08:43.774Z,109.00
2023-03-02T03:09:44.419Z,109.00
2023-03-02T03:10:44.359Z,109.00
2023-03-02T03:11:44.380Z,109.00
2023-03-02T03:12:44.520Z,109.00
2023-03-02T03:13:45.484Z,109.00
2023-03-02T03:14:45.362Z,109.00
2023-03-02T03:15:45.896Z,109.00
2023-03-02T03:16:46.624Z,109.00
2023-03-02T03:17:47.090Z,109.00
2023-03-02T03:18:47.658Z,109.00
2023-03-02T03:19:48.392Z,109.00
2023-03-02T03:20:49.110Z,109.00
2023-03-02T03:21:49.500Z,109.00
2023-03-02T03:22:50.434Z,109.00
2023-03-02T03:23:50.555Z,109.00
2023-03-02T03:24:50.738Z,109.00
2023-03-02T03:25:51.171Z,109.00
2023-03-02T03:26:51.812Z,109.00
2023-03-02T03:27:51.854Z,109.00
2023-03-02T03:28:52.481Z,109.00
2023-03-02T03:29:53.123Z,109.00
2023-03-02T03:30:53.653Z,109.00
2023-03-02T03:31:54.741Z,109.00
2023-03-02T03:32:54.698Z,109.00
2023-03-02T03:33:04.844Z,109.00
2023-03-02T03:34:04.825Z,109.00
2023-03-02T03:35:04.945Z,109.00
2023-03-02T03:36:05.368Z,109.00
2023-03-02T03:37:05.442Z,109.00
2023-03-02T03:38:06.155Z,109.00
2023-03-02T03:39:06.422Z,109.00
2023-03-02T03:40:06.892Z,109.00
2023-03-02T03:41:08.878Z,109.00
2023-03-02T03:42:08.519Z,109.00
2023-03-02T03:43:08.548Z,109.00
2023-03-02T03:44:08.725Z,109.00
2023-03-02T03:45:09.563Z,109.00
2023-03-02T03:46:09.918Z,109.00
2023-03-02T03:47:10.620Z,109.00
2023-03-02T03:48:11.324Z,109.00
2023-03-02T03:49:12.212Z,109.00
2023-03-02T03:50:13.271Z,109.00
2023-03-02T03:51:14.063Z,109.00
2023-03-02T03:52:14.563Z,109.00
2023-03-02T03:53:15.434Z,109.00
2023-03-02T03:54:15.940Z,109.00
2023-03-02T03:55:16.015Z,109.00
2023-03-02T03:56:16.948Z,109.00
2023-03-02T03:57:17.529Z,109.00
2023-03-02T03:58:17.997Z,109.00
2023-03-02T03:59:18.510Z,109.00
2023-03-02T04:00:19.093Z,109.00
2023-03-02T04:01:19.627Z,109.00
2023-03-02T04:02:20.357Z,109.00
2023-03-02T04:03:20.912Z,109.00
2023-03-02T04:04:20.987Z,109.00
2023-03-02T04:05:21.737Z,109.00
2023-03-02T04:05:33.404Z,109.00
2023-03-02T04:06:34.375Z,109.00
2023-03-02T04:07:34.145Z,109.00
2023-03-02T04:08:35.013Z,109.00
2023-03-02T04:09:35.758Z,109.00
2023-03-02T04:10:35.955Z,109.00
2023-03-02T04:11:36.769Z,109.00
2023-03-02T04:12:37.546Z,109.00
2023-03-02T04:13:37.879Z,109.00
2023-03-02T04:14:37.904Z,109.00
2023-03-02T04:15:38.670Z,109.00
2023-03-02T04:16:39.991Z,109.00
2023-03-02T04:17:39.737Z,109.00
2023-03-02T04:18:39.828Z,109.00
2023-03-02T04:19:40.478Z,109.00
2023-03-02T04:20:41.020Z,109.00
2023-03-02T04:21:41.805Z,109.00
2023-03-02T04:22:42.457Z,109.00
2023-03-02T04:23:42.553Z,109.00
2023-03-02T04:24:43.480Z,109.00
2023-03-02T04:25:43.588Z,109.00
2023-03-02T04:26:44.588Z,109.00
2023-03-02T04:27:45.863Z,109.00
2023-03-02T04:28:45.790Z,109.00
2023-03-02T04:29:46.140Z,109.00
2023-03-02T04:30:46.997Z,109.00
2023-03-02T04:31:47.888Z,109.00
2023-03-02T04:32:48.586Z,109.00
2023-03-02T04:33:49.066Z,109.00
2023-03-02T04:34:49.606Z,109.00
2023-03-02T04:35:50.511Z,109.00
2023-03-02T04:36:02.306Z,109.00
2023-03-02T04:37:02.738Z,109.00
2023-03-02T04:38:03.720Z,109.00
2023-03-02T04:39:04.226Z,109.00
2023-03-02T04:40:05.209Z,109.00
2023-03-02T04:41:05.303Z,109.00
2023-03-02T04:42:05.566Z,109.00
2023-03-02T04:43:05.702Z,109.00
2023-03-02T04:44:06.590Z,109.00
2023-03-02T04:45:07.489Z,109.00
2023-03-02T04:46:08.299Z,109.00
2023-03-02T04:47:08.373Z,109.00
2023-03-02T04:48:08.592Z,109.00
2023-03-02T04:49:09.489Z,109.00
2023-03-02T04:50:10.233Z,109.00
2023-03-02T04:51:10.472Z,109.00
2023-03-02T04:52:11.248Z,109.00
2023-03-02T04:53:11.652Z,109.00
2023-03-02T04:54:12.394Z,109.00
2023-03-02T04:55:12.977Z,109.00
2023-03-02T04:56:13.458Z,109.00
2023-03-02T04:57:14.212Z,109.00
2023-03-02T04:58:14.980Z,109.00
2023-03-02T04:59:15.706Z,109.00
2023-03-02T05:00:16.251Z,109.00
2023-03-02T05:01:16.336Z,109.00
2023-03-02T05:02:16.714Z,109.00
2023-03-02T05:03:16.921Z,109.00
2023-03-02T05:04:17.401Z,109.00
2023-03-02T05:05:17.530Z,109.00
2023-03-02T05:06:18.400Z,109.00
2023-03-02T05:07:19.381Z,109.00
2023-03-02T05:07:28.027Z,109.00
2023-03-02T05:08:28.876Z,109.00
2023-03-02T05:09:29.700Z,109.00
2023-03-02T05:10:30.341Z,109.00
2023-03-02T05:11:30.899Z,109.00
2023-03-02T05:12:31.636Z,109.00
2023-03-02T05:13:32.289Z,109.00
2023-03-02T05:14:33.149Z,109.00
2023-03-02T05:15:33.514Z,109.00
2023-03-02T05:16:34.280Z,109.00
2023-03-02T05:17:33.866Z,109.00
2023-03-02T05:18:34.370Z,109.00
2023-03-02T05:19:34.976Z,109.00
2023-03-02T05:20:34.951Z,109.00
2023-03-02T05:21:35.262Z,109.00
2023-03-02T05:22:35.604Z,109.00
2023-03-02T05:23:36.453Z,109.00
2023-03-02T05:24:36.964Z,109.00
2023-03-02T05:25:37.492Z,109.00
2023-03-02T05:26:37.725Z,109.00
2023-03-02T05:27:38.671Z,109.00
2023-03-02T05:28:39.209Z,109.00
2023-03-02T05:29:39.702Z,109.00
2023-03-02T05:30:40.073Z,109.00
2023-03-02T05:31:40.433Z,109.00
2023-03-02T05:32:41.188Z,109.00
2023-03-02T05:33:41.542Z,109.00
2023-03-02T05:34:42.438Z,109.00
2023-03-02T05:35:43.359Z,109.00
2023-03-02T05:36:43.715Z,109.00
2023-03-02T05:37:44.124Z,109.00
2023-03-02T05:37:52.790Z,109.00
2023-03-02T05:38:53.425Z,109.00
2023-03-02T05:39:54.403Z,109.00
2023-03-02T05:40:55.253Z,109.00
2023-03-02T05:41:55.473Z,109.00
2023-03-02T05:42:55.529Z,109.00
2023-03-02T05:43:56.529Z,109.00
2023-03-02T05:44:58.347Z,109.00
2023-03-02T05:45:58.115Z,109.00
2023-03-02T05:46:58.120Z,109.00
2023-03-02T05:47:58.607Z,109.00
2023-03-02T05:48:59.300Z,109.00
2023-03-02T05:50:00.217Z,109.00
2023-03-02T05:51:00.342Z,109.00
2023-03-02T05:52:00.675Z,109.00
2023-03-02T05:53:01.074Z,109.00
2023-03-02T05:54:02.046Z,109.00
2023-03-02T05:55:02.466Z,109.00
2023-03-02T05:56:02.701Z,109.00
2023-03-02T05:57:03.256Z,109.00
2023-03-02T05:58:03.492Z,109.00
2023-03-02T05:59:03.566Z,109.00
2023-03-02T06:00:03.984Z,109.00
2023-03-02T06:01:04.108Z,109.00
2023-03-02T06:02:05.087Z,109.00
2023-03-02T06:03:05.332Z,109.00
2023-03-02T06:04:05.604Z,109.00
2023-03-02T06:05:05.909Z,109.00
2023-03-02T06:06:06.876Z,109.00
2023-03-02T06:07:07.140Z,109.00
2023-03-02T06:08:07.614Z,109.00
2023-03-02T06:09:08.040Z,109.00
2023-03-02T06:09:19.726Z,109.00
2023-03-02T06:10:20.092Z,109.00
2023-03-02T06:11:20.625Z,109.00
2023-03-02T06:12:21.244Z,109.00
2023-03-02T06:13:22.050Z,109.00
2023-03-02T06:14:22.729Z,109.00
2023-03-02T06:15:23.264Z,109.00
2023-03-02T06:16:24.364Z,109.00
2023-03-02T06:17:24.211Z,109.00
2023-03-02T06:18:24.900Z,109.00
2023-03-02T06:19:25.233Z,109.00
2023-03-02T06:20:26.208Z,109.00
2023-03-02T06:21:26.922Z,109.00
2023-03-02T06:22:27.015Z,109.00
2023-03-02T06:23:27.754Z,109.00
2023-03-02T06:24:27.813Z,109.00
2023-03-02T06:25:27.904Z,109.00
2023-03-02T06:26:28.036Z,109.00
2023-03-02T06:27:28.381Z,109.00
2023-03-02T06:28:28.803Z,109.00
2023-03-02T06:29:29.503Z,109.00
2023-03-02T06:30:30.311Z,109.00
2023-03-02T06:31:31.453Z,109.00
2023-03-02T06:32:31.474Z,109.00
2023-03-02T06:33:32.329Z,109.00
2023-03-02T06:34:34.530Z,109.00
2023-03-02T06:35:32.635Z,109.00
2023-03-02T06:36:33.214Z,109.00
2023-03-02T06:37:33.532Z,109.00
2023-03-02T06:38:34.580Z,109.00
2023-03-02T06:39:34.637Z,109.00
2023-03-02T06:40:34.805Z,109.00
2023-03-02T06:40:43.508Z,109.00
2023-03-02T06:41:44.038Z,109.00
2023-03-02T06:42:44.991Z,109.00
2023-03-02T06:43:45.889Z,109.00
2023-03-02T06:44:46.519Z,109.00
2023-03-02T06:45:47.502Z,109.00
2023-03-02T06:46:48.253Z,109.00
2023-03-02T06:47:48.280Z,109.00
2023-03-02T06:48:49.168Z,109.00
2023-03-02T06:49:49.366Z,109.00
2023-03-02T06:50:49.605Z,109.00
2023-03-02T06:51:50.472Z,109.00
2023-03-02T06:52:51.064Z,109.00
2023-03-02T06:53:51.824Z,109.00
2023-03-02T06:54:53.330Z,109.00
2023-03-02T06:55:52.980Z,109.00
2023-03-02T06:56:53.201Z,109.00
2023-03-02T06:57:53.983Z,109.00
2023-03-02T06:58:54.635Z,109.00
2023-03-02T06:59:55.023Z,109.00
2023-03-02T07:00:55.572Z,109.00
2023-03-02T07:01:56.571Z,109.00
2023-03-02T07:02:57.229Z,109.00
2023-03-02T07:03:58.102Z,109.00
2023-03-02T07:04:58.829Z,109.00
2023-03-02T07:05:59.807Z,109.00
2023-03-02T07:07:00.758Z,109.00
2023-03-02T07:08:01.107Z,109.00
2023-03-02T07:09:01.144Z,109.00
2023-03-02T07:10:01.702Z,109.00
2023-03-02T07:11:02.323Z,109.00
2023-03-02T07:12:02.936Z,109.00
2023-03-02T07:13:03.789Z,109.00
2023-03-02T07:14:04.082Z,109.00
2023-03-02T07:15:04.719Z,109.00
2023-03-02T07:15:13.367Z,109.00
2023-03-02T07:16:13.362Z,109.00
2023-03-02T07:17:14.172Z,109.00
2023-03-02T07:18:14.304Z,109.00
2023-03-02T07:19:14.854Z,109.00
2023-03-02T07:20:15.010Z,109.00
2023-03-02T07:21:15.925Z,109.00
2023-03-02T07:22:16.360Z,109.00
2023-03-02T07:23:16.498Z,109.00
2023-03-02T07:24:17.381Z,109.00
2023-03-02T07:25:18.301Z,109.00
2023-03-02T07:26:19.097Z,109.00
2023-03-02T07:27:19.276Z,109.00
2023-03-02T07:28:19.980Z,109.00
2023-03-02T07:29:20.440Z,109.00
2023-03-02T07:30:20.797Z,109.00
2023-03-02T07:31:21.497Z,109.00
2023-03-02T07:32:22.263Z,109.00
2023-03-02T07:33:22.790Z,109.00
2023-03-02T07:34:23.172Z,109.00
2023-03-02T07:35:23.795Z,109.00
2023-03-02T07:36:24.415Z,109.00
2023-03-02T07:37:24.500Z,109.00
2023-03-02T07:38:25.236Z,109.00
2023-03-02T07:39:26.040Z,109.00
2023-03-02T07:40:26.618Z,109.00
2023-03-02T07:41:27.263Z,109.00
2023-03-02T07:42:27.987Z,109.00
2023-03-02T07:43:28.889Z,109.00
2023-03-02T07:44:29.741Z,109.00
2023-03-02T07:45:30.305Z,109.00
2023-03-02T07:46:30.954Z,109.00
2023-03-02T07:46:39.818Z,109.00
2023-03-02T07:47:40.207Z,109.00
2023-03-02T07:48:41.124Z,109.00
2023-03-02T07:49:41.588Z,109.00
2023-03-02T07:50:42.211Z,109.00
2023-03-02T07:51:43.155Z,109.00
2023-03-02T07:52:43.762Z,109.00
2023-03-02T07:53:43.993Z,109.00
2023-03-02T07:54:44.573Z,109.00
2023-03-02T07:55:45.298Z,109.00
2023-03-02T07:56:46.086Z,109.00
2023-03-02T07:57:46.885Z,109.00
2023-03-02T07:58:47.258Z,109.00
2023-03-02T07:59:47.347Z,109.00
2023-03-02T08:00:48.247Z,109.00
2023-03-02T08:01:48.415Z,109.00
2023-03-02T08:02:48.935Z,109.00
2023-03-02T08:03:49.514Z,109.00
2023-03-02T08:04:49.800Z,109.00
2023-03-02T08:05:49.913Z,109.00
2023-03-02T08:06:50.162Z,109.00
2023-03-02T08:07:51.089Z,109.00
2023-03-02T08:08:51.440Z,109.00
2023-03-02T08:09:52.047Z,109.00
2023-03-02T08:10:52.460Z,109.00
2023-03-02T08:11:52.638Z,109.00
2023-03-02T08:12:52.807Z,109.00
2023-03-02T08:13:53.391Z,109.00
2023-03-02T08:14:53.977Z,109.00
2023-03-02T08:15:54.695Z,109.00
2023-03-02T08:16:54.938Z,109.00
2023-03-02T08:17:55.285Z,109.00
2023-03-02T08:18:04.023Z,109.00
2023-03-02T08:19:04.337Z,109.00
2023-03-02T08:20:05.195Z,109.00
2023-03-02T08:21:05.625Z,109.00
2023-03-02T08:22:06.289Z,109.00
2023-03-02T08:23:07.272Z,109.00
2023-03-02T08:24:07.259Z,109.00
2023-03-02T08:25:07.874Z,109.00
2023-03-02T08:26:08.430Z,109.00
2023-03-02T08:27:08.850Z,109.00
2023-03-02T08:28:09.231Z,109.00
2023-03-02T08:29:09.574Z,109.00
2023-03-02T08:30:10.052Z,109.00
2023-03-02T08:31:10.714Z,109.00
2023-03-02T08:32:11.165Z,109.00
2023-03-02T08:33:11.772Z,109.00
2023-03-02T08:34:12.123Z,109.00
2023-03-02T08:35:12.615Z,109.00
2023-03-02T08:36:12.786Z,109.00
2023-03-02T08:37:13.540Z,109.00
2023-03-02T08:38:14.220Z,109.00
2023-03-02T08:39:14.804Z,109.00
2023-03-02T08:40:15.137Z,109.00
2023-03-02T08:41:15.434Z,109.00
2023-03-02T08:42:15.940Z,109.00
2023-03-02T08:43:16.928Z,109.00
2023-03-02T08:44:16.973Z,109.00
2023-03-02T08:45:17.474Z,109.00
2023-03-02T08:46:18.563Z,109.00
2023-03-02T08:47:18.699Z,109.00
2023-03-02T08:48:19.132Z,109.00
2023-03-02T08:49:19.117Z,109.00
2023-03-02T08:49:28.324Z,109.00
2023-03-02T08:50:29.008Z,109.00
2023-03-02T08:51:29.087Z,109.00
2023-03-02T08:52:29.695Z,109.00
2023-03-02T08:53:30.347Z,109.00
2023-03-02T08:54:30.927Z,109.00
2023-03-02T08:55:34.745Z,109.00
2023-03-02T08:56:31.951Z,109.00
2023-03-02T08:57:31.796Z,109.00
2023-03-02T08:58:32.097Z,109.00
2023-03-02T08:59:32.298Z,109.00
2023-03-02T09:00:32.955Z,109.00
2023-03-02T09:01:34.050Z,109.00
2023-03-02T09:02:34.614Z,109.00
2023-03-02T09:03:35.649Z,109.00
2023-03-02T09:04:35.758Z,109.00
2023-03-02T09:05:36.251Z,109.00
2023-03-02T09:06:37.082Z,109.00
2023-03-02T09:07:37.283Z,109.00
2023-03-02T09:08:37.857Z,109.00
2023-03-02T09:09:38.832Z,109.00
2023-03-02T09:10:39.642Z,109.00
2023-03-02T09:11:40.406Z,109.00
2023-03-02T09:12:40.902Z,109.00
2023-03-02T09:13:41.024Z,109.00
2023-03-02T09:14:41.787Z,109.00
2023-03-02T09:15:41.927Z,109.00
2023-03-02T09:16:42.037Z,108.77
2023-03-02T09:16:55.754Z,104.94
2023-03-02T09:17:55.654Z,104.08
2023-03-02T09:18:56.188Z,100.50
2023-03-02T09:19:56.596Z,99.03
2023-03-02T09:20:57.033Z,96.70
2023-03-02T09:21:57.361Z,92.79
2023-03-02T09:22:58.161Z,94.41
2023-03-02T09:23:59.140Z,100.81
2023-03-02T09:25:00.174Z,98.58
2023-03-02T09:26:01.138Z,99.17
2023-03-02T09:27:01.350Z,97.65
2023-03-02T09:28:01.564Z,102.61
2023-03-02T09:29:01.671Z,106.56
2023-03-02T09:30:02.622Z,109.00
2023-03-02T09:31:03.296Z,109.00
2023-03-02T09:32:04.251Z,109.00
2023-03-02T09:33:05.391Z,109.00
2023-03-02T09:34:05.108Z,107.29
2023-03-02T09:35:05.204Z,101.10
2023-03-02T09:36:06.143Z,98.06
2023-03-02T09:37:06.136Z,90.96
2023-03-02T09:38:06.755Z,88.04
2023-03-02T09:39:06.978Z,85.79
2023-03-02T09:40:07.286Z,86.13
2023-03-02T09:41:08.133Z,82.77
2023-03-02T09:42:09.038Z,83.87
2023-03-02T09:42:17.704Z,87.99
2023-03-02T09:43:18.606Z,88.22
2023-03-02T09:44:19.256Z,92.06
2023-03-02T09:45:19.823Z,95.57
2023-03-02T09:46:20.771Z,96.72
2023-03-02T09:47:34.618Z,93.87
2023-03-02T09:48:21.258Z,92.26
2023-03-02T09:49:22.193Z,92.14
2023-03-02T09:50:22.782Z,96.02
2023-03-02T09:51:22.936Z,94.18
2023-03-02T09:52:23.843Z,93.29
2023-03-02T09:53:24.391Z,91.65
2023-03-02T09:54:24.899Z,93.15
2023-03-02T09:55:25.604Z,93.21
2023-03-02T09:56:26.197Z,92.65
2023-03-02T09:57:26.878Z,93.20
2023-03-02T09:58:27.586Z,91.33
2023-03-02T09:59:28.476Z,93.14
2023-03-02T10:00:28.929Z,96.31
2023-03-02T10:01:29.383Z,96.28
2023-03-02T10:02:30.002Z,95.57
2023-03-02T10:03:30.853Z,96.93
2023-03-02T10:04:31.684Z,94.72
2023-03-02T10:05:32.146Z,96.32
2023-03-02T10:06:33.059Z,94.83
2023-03-02T10:07:33.340Z,94.92
2023-03-02T10:08:33.716Z,94.19
2023-03-02T10:09:34.200Z,94.03
2023-03-02T10:10:34.821Z,91.30
2023-03-02T10:11:35.471Z,91.26
2023-03-02T10:12:36.068Z,94.25
2023-03-02T10:13:36.704Z,95.12
2023-03-02T10:13:47.388Z,96.77
2023-03-02T10:14:46.061Z,96.18
2023-03-02T10:15:46.989Z,97.42
2023-03-02T10:16:46.796Z,99.22
2023-03-02T10:17:47.540Z,100.73
2023-03-02T10:18:48.286Z,100.39
2023-03-02T10:19:48.858Z,101.36
2023-03-02T10:20:49.490Z,100.40
2023-03-02T10:21:50.384Z,99.48
2023-03-02T10:22:50.743Z,103.74
2023-03-02T10:23:51.098Z,103.16
2023-03-02T10:24:51.770Z,99.32
2023-03-02T10:25:52.762Z,97.04
2023-03-02T10:26:53.596Z,94.80
2023-03-02T10:27:54.151Z,92.17
2023-03-02T10:28:54.751Z,93.93
2023-03-02T10:29:55.363Z,99.61
2023-03-02T10:30:55.873Z,98.31
2023-03-02T10:31:56.424Z,99.79
2023-03-02T10:32:56.944Z,98.31
2023-03-02T10:33:57.873Z,98.10
2023-03-02T10:34:58.285Z,101.28
2023-03-02T10:35:58.910Z,99.84
2023-03-02T10:36:59.473Z,96.75
2023-03-02T10:38:00.290Z,96.80
2023-03-02T10:39:00.668Z,99.90
2023-03-02T10:40:01.383Z,101.57
2023-03-02T10:41:01.909Z,99.04
2023-03-02T10:42:02.790Z,101.95
2023-03-02T10:43:03.173Z,100.48
2023-03-02T10:44:03.630Z,100.12
2023-03-02T10:45:04.144Z,100.41
2023-03-02T10:46:04.739Z,99.45
2023-03-02T10:47:05.309Z,101.92
2023-03-02T10:47:20.121Z,105.43
2023-03-02T10:48:18.268Z,106.02
2023-03-02T10:49:21.033Z,105.41
2023-03-02T10:50:19.007Z,104.47
2023-03-02T10:51:19.572Z,104.93
2023-03-02T10:52:26.574Z,104.33
2023-03-02T10:53:20.936Z,103.27
2023-03-02T10:54:21.665Z,101.08
2023-03-02T10:55:21.719Z,103.17
2023-03-02T10:56:22.169Z,103.58
2023-03-02T10:57:23.826Z,101.06
2023-03-02T10:58:23.503Z,98.97
2023-03-02T10:59:24.149Z,99.53
2023-03-02T11:00:24.924Z,99.78
2023-03-02T11:01:25.963Z,98.27
2023-03-02T11:02:26.466Z,96.58
2023-03-02T11:03:26.769Z,97.70
2023-03-02T11:04:27.356Z,96.51
2023-03-02T11:05:27.920Z,99.18
2023-03-02T11:06:28.154Z,99.40
2023-03-02T11:07:28.999Z,99.84
2023-03-02T11:08:29.770Z,101.39
2023-03-02T11:09:30.649Z,102.97
2023-03-02T11:10:31.194Z,102.11
2023-03-02T11:11:32.137Z,100.31
2023-03-02T11:12:32.283Z,100.71
2023-03-02T11:13:32.695Z,103.96
2023-03-02T11:14:33.396Z,101.17
2023-03-02T11:15:34.091Z,98.32
2023-03-02T11:16:34.761Z,99.70
2023-03-02T11:17:35.646Z,100.97
2023-03-02T11:18:36.207Z,100.24
2023-03-02T11:18:43.839Z,99.88
2023-03-02T11:19:44.310Z,100.32
2023-03-02T11:20:44.381Z,101.77
2023-03-02T11:21:44.835Z,102.42
2023-03-02T11:22:44.920Z,102.08
2023-03-02T11:23:44.985Z,105.34
2023-03-02T11:24:45.675Z,105.13
2023-03-02T11:25:46.486Z,104.97
2023-03-02T11:26:46.546Z,105.33
2023-03-02T11:27:47.045Z,102.66
2023-03-02T11:28:47.768Z,99.10
2023-03-02T11:29:48.463Z,98.54
2023-03-02T11:30:48.480Z,97.13
2023-03-02T11:31:49.083Z,98.24
2023-03-02T11:32:49.934Z,98.75
2023-03-02T11:33:50.801Z,99.39
2023-03-02T11:34:51.474Z,97.39
2023-03-02T11:35:52.574Z,98.76
2023-03-02T11:36:53.067Z,95.92
2023-03-02T11:37:53.821Z,96.70
2023-03-02T11:38:54.384Z,95.43
2023-03-02T11:39:56.028Z,95.72
2023-03-02T11:40:55.386Z,94.33
2023-03-02T11:41:55.812Z,94.91
2023-03-02T11:42:55.928Z,95.83
2023-03-02T11:43:56.353Z,96.95
2023-03-02T11:44:56.761Z,96.16
2023-03-02T11:45:57.683Z,94.21
2023-03-02T11:46:58.399Z,97.65
2023-03-02T11:48:03.324Z,101.48
2023-03-02T11:48:59.398Z,100.01
2023-03-02T11:50:00.247Z,95.39
2023-03-02T11:50:08.913Z,95.75
2023-03-02T11:51:09.867Z,95.60
2023-03-02T11:52:10.608Z,93.76
2023-03-02T11:53:10.683Z,94.71
2023-03-02T11:54:11.032Z,95.75
2023-03-02T11:55:11.268Z,97.98
2023-03-02T11:56:11.755Z,98.13
2023-03-02T11:57:13.714Z,95.79
2023-03-02T11:58:12.812Z,92.15
2023-03-02T11:59:13.783Z,91.79
2023-03-02T12:00:14.370Z,95.57
2023-03-02T12:01:14.719Z,92.36
2023-03-02T12:02:15.427Z,87.86
2023-03-02T12:03:18.973Z,93.92
2023-03-02T12:04:16.583Z,90.63
2023-03-02T12:05:17.555Z,89.78
2023-03-02T12:06:18.311Z,88.32
2023-03-02T12:07:18.621Z,92.12
2023-03-02T12:08:19.509Z,91.30
2023-03-02T12:09:19.753Z,91.00
2023-03-02T12:10:20.141Z,89.75
2023-03-02T12:11:20.809Z,88.54
2023-03-02T12:12:20.858Z,82.39
2023-03-02T12:13:21.763Z,85.09
2023-03-02T12:14:21.953Z,90.20
2023-03-02T12:15:22.893Z,87.19
2023-03-02T12:16:23.225Z,89.03
2023-03-02T12:16:38.597Z,89.26
2023-03-02T12:17:39.184Z,88.83
2023-03-02T12:18:39.061Z,85.83